createdAt,value
2019-05-13T00:03:56.502Z,78.7
2019-05-13T00:08:56.525Z,79.6
2019-05-13T00:13:56.868Z,80.3
2019-05-13T00:18:56.905Z,80.5
2019-05-13T00:23:56.686Z,80.6
2019-05-13T00:28:56.859Z,79.2
2019-05-13T00:33:56.866Z,79.6
2019-05-13T00:38:56.504Z,79.6
2019-05-13T00:43:56.947Z,79.3
2019-05-13T00:48:56.419Z,78
2019-05-13T00:53:56.745Z,79.2
2019-05-13T00:58:56.337Z,79.8
2019-05-13T01:03:56.665Z,80.2
2019-05-13T01:13:55.922Z,79.5
2019-05-13T01:18:57.194Z,79.4
2019-05-13T01:23:56.529Z,79.5
2019-05-13T01:28:56.031Z,78.9
2019-05-13T01:33:56.997Z,79.6
2019-05-13T01:38:56.277Z,78.6
2019-05-13T01:43:56.647Z,79.2
2019-05-13T01:48:56.540Z,77.9
2019-05-13T01:53:56.523Z,79.5
2019-05-13T01:58:57.380Z,78.9
2019-05-13T02:03:56.729Z,78.7
2019-05-13T02:08:56.751Z,79.3
2019-05-13T02:13:57.130Z,80.5
2019-05-13T02:19:03.819Z,81.1
2019-05-13T02:23:56.792Z,81.8
2019-05-13T02:28:56.280Z,82.4
2019-05-13T02:33:56.997Z,83.1
2019-05-13T02:38:57.308Z,83.3
2019-05-13T02:44:05.855Z,83.1
2019-05-13T02:48:56.787Z,82.6
2019-05-13T02:54:03.389Z,81.8
2019-05-13T02:59:03.762Z,82.2
2019-05-13T03:04:04.931Z,81.6
2019-05-13T03:09:08.157Z,81.3
2019-05-13T03:13:57.190Z,80.2
2019-05-13T03:19:02.695Z,79.1
2019-05-13T03:24:03.360Z,80.7
2019-05-13T03:29:02.667Z,80.8
2019-05-13T03:34:18.234Z,79.6
2019-05-13T03:39:35.170Z,79.9
2019-05-13T03:44:04.681Z,79.8
2019-05-13T03:49:01.991Z,78.5
2019-05-13T03:53:58.332Z,76.8
2019-05-13T03:58:58.103Z,78.4
2019-05-13T04:04:03.222Z,78.3
2019-05-13T04:09:27.189Z,77
2019-05-13T04:14:03.078Z,76.1
2019-05-13T04:18:57.164Z,74.9
2019-05-13T04:23:57.435Z,73.5
2019-05-13T04:29:02.869Z,74.4
2019-05-13T04:34:04.406Z,72
2019-05-13T04:39:05.257Z,70.4
2019-05-13T04:44:04.834Z,70.7
2019-05-13T04:49:04.446Z,70.1
2019-05-13T04:54:05.360Z,71
2019-05-13T04:59:02.892Z,71.2
2019-05-13T05:04:34.749Z,70.8
2019-05-13T05:10:23.167Z,71.5
2019-05-13T05:20:14.486Z,70.6
2019-05-13T05:25:18.738Z,70.6
2019-05-13T05:29:26.514Z,70.8
2019-05-13T05:39:26.877Z,70
2019-05-13T05:44:04.499Z,70.1
2019-05-13T05:49:04.197Z,67.4
2019-05-13T05:53:58.294Z,67.8
2019-05-13T05:59:02.716Z,65.9
2019-05-13T06:04:01.461Z,65.8
2019-05-13T06:08:55.977Z,64.2
2019-05-13T06:14:04.423Z,63.4
2019-05-13T06:18:56.012Z,65.4
2019-05-13T06:23:56.393Z,62.7
2019-05-13T06:28:55.977Z,62.5
2019-05-13T06:33:56.760Z,61.8
2019-05-13T06:39:02.194Z,61.8
2019-05-13T06:43:56.383Z,58.8
2019-05-13T06:48:56.013Z,58.8
2019-05-13T06:53:55.968Z,60
2019-05-13T06:59:01.436Z,56.4
2019-05-13T07:03:56.406Z,54.4
2019-05-13T07:08:56.316Z,53.8
2019-05-13T07:13:56.756Z,53.6
2019-05-13T07:18:56.058Z,52.4
2019-05-13T07:24:04.440Z,54.8
2019-05-13T07:29:03.217Z,53
2019-05-13T07:33:57.117Z,53.4
2019-05-13T07:38:56.219Z,53.9
2019-05-13T07:43:57.232Z,53.5
2019-05-13T07:48:56.092Z,51.1
2019-05-13T07:53:57.088Z,50.8
2019-05-13T07:58:56.382Z,52.3
2019-05-13T08:03:56.686Z,50.2
2019-05-13T08:08:56.700Z,51.2
2019-05-13T08:14:01.735Z,51.7
2019-05-13T08:19:01.734Z,50.4
2019-05-13T08:24:02.488Z,50.1
2019-05-13T08:29:21.595Z,48.6
2019-05-13T08:33:56.973Z,49.7
2019-05-13T08:39:02.570Z,51.1
2019-05-13T08:43:56.414Z,49.6
2019-05-13T08:49:03.616Z,48.8
2019-05-13T08:53:56.993Z,49
2019-05-13T08:58:55.833Z,48.6
2019-05-13T09:03:56.298Z,48.1
2019-05-13T09:09:08.524Z,47.4
2019-05-13T09:14:04.496Z,48.5
2019-05-13T09:19:06.013Z,45.8
2019-05-13T09:31:03.744Z,47
2019-05-13T09:34:04.393Z,44.4
2019-05-13T09:39:04.219Z,43.1
2019-05-13T09:44:04.319Z,43.8
2019-05-13T09:49:25.839Z,41
2019-05-13T09:54:04.280Z,41
2019-05-13T09:59:04.120Z,42.3
2019-05-13T10:04:15.537Z,40.9
2019-05-13T10:09:04.353Z,39.6
2019-05-13T10:14:04.466Z,39.2
2019-05-13T10:19:04.729Z,40.7
2019-05-13T10:24:07.231Z,41
2019-05-13T10:29:01.699Z,40.1
2019-05-13T10:34:04.659Z,37.6
2019-05-13T10:39:04.881Z,36.3
2019-05-13T10:44:05.215Z,38.5
2019-05-13T10:49:04.101Z,39.5
2019-05-13T10:54:08.026Z,38.7
2019-05-13T10:59:05.215Z,39.3
2019-05-13T11:04:04.950Z,41.2
2019-05-13T11:09:04.641Z,40.8
2019-05-13T11:14:32.235Z,43.4
2019-05-13T11:19:05.130Z,42.7
2019-05-13T11:24:05.509Z,40.1
2019-05-13T11:29:05.003Z,38.3
2019-05-13T11:34:04.404Z,35
2019-05-13T11:39:06.540Z,34.3
2019-05-13T11:44:34.222Z,33.7
2019-05-13T11:49:04.794Z,34.2
2019-05-13T11:54:04.597Z,39.8
2019-05-13T11:59:06.582Z,39.5
2019-05-13T12:04:04.951Z,37
2019-05-13T12:09:15.295Z,37.2
2019-05-13T12:14:07.260Z,38.2
2019-05-13T12:19:05.863Z,39
2019-05-13T12:24:12.577Z,38.3
2019-05-13T12:29:06.275Z,39.2
2019-05-13T12:34:06.066Z,39.4
2019-05-13T12:39:07.108Z,41.7
2019-05-13T12:44:06.385Z,41.6
2019-05-13T12:49:06.091Z,42.2
2019-05-13T12:54:06.089Z,43.2
2019-05-13T12:59:05.279Z,45.3
2019-05-13T13:04:04.427Z,43.9
2019-05-13T13:09:07.416Z,43.4
2019-05-13T13:14:39.381Z,42.2
2019-05-13T13:19:07.032Z,43.1
2019-05-13T13:26:13.841Z,42.5
2019-05-13T13:29:08.009Z,42.5
2019-05-13T13:34:25.322Z,42.5
2019-05-13T13:39:16.781Z,42
2019-05-13T13:44:08.033Z,40.9
2019-05-13T13:49:08.070Z,41.4
2019-05-13T13:54:08.761Z,39.5
2019-05-13T13:59:06.778Z,41.1
2019-05-13T14:06:06.825Z,43.5
2019-05-13T14:09:07.951Z,41.2
2019-05-13T14:14:04.415Z,43.7
2019-05-13T14:19:04.971Z,42.4
2019-05-13T14:24:11.992Z,42.7
2019-05-13T14:29:14.673Z,42.3
2019-05-13T14:34:13.664Z,41.6
2019-05-13T14:39:14.048Z,41
2019-05-13T14:44:08.729Z,40.9
2019-05-13T14:49:06.330Z,41.8
2019-05-13T14:54:11.080Z,40.6
2019-05-13T14:59:13.781Z,41.2
2019-05-13T15:04:12.154Z,41.2
2019-05-13T15:09:12.525Z,41.9
2019-05-13T15:14:11.546Z,43.8
2019-05-13T15:19:11.942Z,43.6
2019-05-13T15:24:12.296Z,43.2
2019-05-13T15:29:15.099Z,43.1
2019-05-13T15:34:11.002Z,43
2019-05-13T15:39:11.264Z,43.5
2019-05-13T15:44:13.571Z,45
2019-05-13T15:49:22.051Z,43
2019-05-13T15:54:16.688Z,45.6
2019-05-13T15:59:14.545Z,44
2019-05-13T16:04:13.310Z,44.1
2019-05-13T16:09:13.694Z,42.9
2019-05-13T16:14:11.557Z,43.2
2019-05-13T16:19:08.005Z,42.7
2019-05-13T16:24:14.152Z,43.5
2019-05-13T16:29:14.630Z,46.4
2019-05-13T16:34:14.889Z,48
2019-05-13T16:39:14.516Z,48.7
2019-05-13T16:44:11.850Z,49.5
2019-05-13T16:49:14.104Z,49.7
2019-05-13T16:54:09.780Z,50.3
2019-05-13T16:59:12.031Z,50.2
2019-05-13T17:04:14.538Z,51.5
2019-05-13T17:09:13.629Z,51.6
2019-05-13T17:14:11.413Z,51.7
2019-05-13T17:19:14.101Z,51
2019-05-13T17:24:14.490Z,50
2019-05-13T17:29:14.184Z,57.5
2019-05-13T17:34:14.244Z,59
2019-05-13T17:39:14.734Z,61.2
2019-05-13T17:44:11.542Z,62.4
2019-05-13T17:49:13.817Z,62.5
2019-05-13T17:54:13.975Z,62.1
2019-05-13T17:59:11.300Z,62.6
2019-05-13T18:04:11.718Z,62.3
2019-05-13T18:09:13.967Z,62
2019-05-13T18:14:13.605Z,61.6
2019-05-13T18:19:11.819Z,61.9
2019-05-13T18:24:14.080Z,62.3
2019-05-13T18:29:14.434Z,65.1
2019-05-13T18:34:14.230Z,67.5
2019-05-13T18:39:16.139Z,69.3
2019-05-13T18:44:14.481Z,69.5
2019-05-13T18:49:16.756Z,70.9
2019-05-13T18:54:14.175Z,72.4
2019-05-13T18:59:14.739Z,71.9
2019-05-13T19:04:13.590Z,72.1
2019-05-13T19:09:13.365Z,71.9
2019-05-13T19:14:14.220Z,71.5
2019-05-13T19:19:31.630Z,72
2019-05-13T19:24:15.293Z,71.8
2019-05-13T19:29:13.636Z,71.2
2019-05-13T19:34:14.788Z,67.9
2019-05-13T19:39:13.598Z,70.8
2019-05-13T19:44:18.114Z,68.7
2019-05-13T19:49:37.109Z,72.1
2019-05-13T19:54:22.120Z,75.3
2019-05-13T19:59:21.522Z,75.3
2019-05-13T20:04:18.838Z,76.7
2019-05-13T20:09:18.062Z,77.7
2019-05-13T20:14:22.341Z,77.8
2019-05-13T20:19:22.167Z,75.6
2019-05-13T20:24:16.221Z,75.9
2019-05-13T20:29:22.199Z,75.1
2019-05-13T20:34:22.116Z,73.8
2019-05-13T20:39:22.205Z,73.4
2019-05-13T20:44:18.034Z,74.3
2019-05-13T20:49:21.777Z,74.1
2019-05-13T20:54:21.482Z,74.7
2019-05-13T20:59:20.950Z,75.1
2019-05-13T21:04:21.457Z,74.5
2019-05-13T21:09:25.590Z,74
2019-05-13T21:14:21.377Z,74.5
2019-05-13T21:19:22.004Z,74.3
2019-05-13T21:24:21.181Z,74.9
2019-05-13T21:29:23.623Z,76.4
2019-05-13T21:34:21.090Z,77.3
2019-05-13T21:39:21.313Z,75
2019-05-13T21:44:20.364Z,73.9
2019-05-13T21:49:21.233Z,74.5
2019-05-13T21:54:24.277Z,75.7
2019-05-13T21:59:25.353Z,76
2019-05-13T22:04:24.846Z,75.2
2019-05-13T22:09:24.208Z,76
2019-05-13T22:19:24.817Z,74.7
2019-05-13T22:24:24.264Z,75
2019-05-13T22:29:25.234Z,76.5
2019-05-13T22:34:24.600Z,74.6
2019-05-13T22:39:24.132Z,70.6
2019-05-13T22:44:25.952Z,69.6
2019-05-13T22:49:24.285Z,69.7
2019-05-13T22:54:24.368Z,68.5
2019-05-13T22:59:24.678Z,69.8
2019-05-13T23:04:24.008Z,72
2019-05-13T23:09:25.003Z,71.4
2019-05-13T23:14:30.320Z,73.1
2019-05-13T23:19:25.529Z,75.2
2019-05-13T23:24:24.055Z,74.3
2019-05-13T23:29:23.613Z,77.1
2019-05-13T23:34:24.537Z,79.2
2019-05-13T23:39:24.129Z,79.9
2019-05-13T23:44:44.703Z,79.2
2019-05-13T23:49:26.370Z,77.7
2019-05-13T23:54:24.735Z,76
2019-05-13T23:59:24.025Z,75.4
